createdAt,value
2023-03-08T00:00:17.275Z,81.13
2023-03-08T00:02:44.847Z,81.62
2023-03-08T00:05:12.136Z,81.80
2023-03-08T00:07:39.412Z,81.88
2023-03-08T00:10:07.083Z,81.79
2023-03-08T00:12:34.377Z,81.31
2023-03-08T00:15:01.638Z,81.29
2023-03-08T00:17:28.920Z,82.09
2023-03-08T00:19:57.276Z,82.57
2023-03-08T00:22:24.525Z,83.01
2023-03-08T00:24:53.397Z,82.87
2023-03-08T00:27:20.678Z,82.94
2023-03-08T00:29:47.921Z,83.07
2023-03-08T00:32:17.015Z,83.37
2023-03-08T00:34:46.954Z,83.42
2023-03-08T00:37:14.277Z,83.39
2023-03-08T00:39:41.711Z,83.79
2023-03-08T00:42:09.092Z,83.45
2023-03-08T00:44:36.404Z,83.26
2023-03-08T00:47:06.534Z,82.89
2023-03-08T00:49:33.841Z,81.81
2023-03-08T00:52:01.198Z,81.42
2023-03-08T00:54:30.069Z,83.33
2023-03-08T00:56:57.532Z,84.46
2023-03-08T00:59:25.043Z,85.36
2023-03-08T01:01:52.462Z,86.04
2023-03-08T01:04:19.901Z,86.02
2023-03-08T01:06:47.224Z,86.21
2023-03-08T01:09:14.552Z,85.58
2023-03-08T01:11:41.927Z,84.89
2023-03-08T01:14:09.338Z,85.68
2023-03-08T01:16:37.170Z,85.06
2023-03-08T01:19:05.325Z,85.63
2023-03-08T01:21:32.804Z,85.68
2023-03-08T01:24:00.546Z,85.12
2023-03-08T01:26:29.101Z,84.79
2023-03-08T01:28:57.448Z,85.54
2023-03-08T01:31:31.438Z,86.16
2023-03-08T01:34:00.409Z,86.85
2023-03-08T01:36:28.789Z,88.54
2023-03-08T01:39:01.370Z,89.86
2023-03-08T01:41:30.744Z,88.90
2023-03-08T01:43:58.553Z,88.49
2023-03-08T01:46:27.700Z,88.66
2023-03-08T01:49:18.151Z,87.67
2023-03-08T01:51:45.475Z,87.96
2023-03-08T01:54:20.396Z,87.54
2023-03-08T01:56:51.935Z,87.80
2023-03-08T01:59:22.055Z,87.32
2023-03-08T02:01:49.808Z,87.49
2023-03-08T02:04:17.905Z,87.98
2023-03-08T02:06:46.723Z,87.91
2023-03-08T02:09:20.105Z,87.74
2023-03-08T02:11:48.602Z,87.50
2023-03-08T02:14:16.002Z,88.17
2023-03-08T02:16:46.263Z,87.52
2023-03-08T02:19:32.268Z,89.52
2023-03-08T02:22:06.987Z,90.01
2023-03-08T02:24:34.303Z,89.36
2023-03-08T02:27:14.763Z,89.17
2023-03-08T02:29:42.094Z,89.23
2023-03-08T02:32:09.799Z,88.81
2023-03-08T02:34:37.269Z,89.15
2023-03-08T02:37:04.609Z,89.04
2023-03-08T02:39:32.216Z,88.44
2023-03-08T02:41:59.872Z,88.71
2023-03-08T02:44:27.179Z,88.11
2023-03-08T02:46:54.630Z,87.59
2023-03-08T02:49:22.008Z,87.15
2023-03-08T02:51:49.305Z,87.59
2023-03-08T02:54:17.106Z,86.86
2023-03-08T02:56:46.861Z,88.49
2023-03-08T02:59:14.956Z,88.65
2023-03-08T03:01:44.716Z,89.32
2023-03-08T03:04:12.094Z,88.91
2023-03-08T03:06:39.440Z,89.14
2023-03-08T03:09:09.333Z,88.59
2023-03-08T03:11:37.370Z,88.86
2023-03-08T03:14:04.712Z,88.00
2023-03-08T03:16:37.505Z,88.94
2023-03-08T03:19:04.913Z,90.11
2023-03-08T03:21:32.645Z,91.56
2023-03-08T03:24:00.123Z,91.23
2023-03-08T03:26:35.131Z,91.38
2023-03-08T03:29:02.506Z,91.26
2023-03-08T03:31:34.303Z,91.42
2023-03-08T03:34:02.225Z,92.36
2023-03-08T03:36:29.636Z,92.09
2023-03-08T03:38:58.317Z,90.46
2023-03-08T03:41:26.012Z,90.65
2023-03-08T03:44:02.050Z,91.89
2023-03-08T03:46:30.307Z,92.42
2023-03-08T03:49:01.780Z,93.21
2023-03-08T03:51:34.801Z,92.47
2023-03-08T03:54:25.949Z,92.81
2023-03-08T03:56:59.685Z,92.12
2023-03-08T03:59:31.074Z,92.61
2023-03-08T04:01:58.436Z,93.61
2023-03-08T04:04:36.311Z,94.70
2023-03-08T04:07:05.890Z,94.55
2023-03-08T04:09:39.156Z,94.54
2023-03-08T04:12:10.946Z,93.74
2023-03-08T04:14:40.384Z,93.23
2023-03-08T04:17:09.054Z,92.91
2023-03-08T04:19:44.288Z,92.84
2023-03-08T04:22:13.655Z,92.94
2023-03-08T04:24:47.626Z,93.03
2023-03-08T04:27:20.499Z,93.22
2023-03-08T04:29:47.822Z,93.06
2023-03-08T04:32:15.709Z,92.78
2023-03-08T04:34:48.468Z,93.27
2023-03-08T04:37:20.225Z,93.45
2023-03-08T04:39:51.936Z,92.99
2023-03-08T04:42:19.860Z,92.76
2023-03-08T04:44:48.234Z,93.10
2023-03-08T04:47:19.721Z,93.13
2023-03-08T04:49:47.085Z,92.61
2023-03-08T04:52:14.415Z,91.97
2023-03-08T04:54:43.082Z,91.51
2023-03-08T04:57:21.109Z,92.24
2023-03-08T04:59:53.202Z,93.00
2023-03-08T05:02:23.047Z,92.33
2023-03-08T05:04:51.147Z,90.79
2023-03-08T05:07:18.684Z,89.93
2023-03-08T05:09:47.143Z,90.01
2023-03-08T05:12:14.600Z,90.17
2023-03-08T05:14:55.102Z,91.05
2023-03-08T05:17:25.048Z,90.88
2023-03-08T05:19:52.573Z,90.07
2023-03-08T05:22:23.967Z,89.89
2023-03-08T05:24:55.445Z,90.06
2023-03-08T05:27:22.696Z,89.30
2023-03-08T05:29:52.284Z,89.79
2023-03-08T05:32:19.729Z,90.03
2023-03-08T05:34:47.885Z,89.85
2023-03-08T05:37:27.373Z,88.56
2023-03-08T05:39:55.654Z,89.06
2023-03-08T05:42:23.659Z,88.41
2023-03-08T05:44:51.061Z,88.72
2023-03-08T05:47:23.733Z,88.53
2023-03-08T05:49:51.629Z,88.44
2023-03-08T05:52:19.679Z,88.46
2023-03-08T05:54:47.321Z,87.94
2023-03-08T05:57:18.934Z,88.03
2023-03-08T05:59:46.956Z,88.18
2023-03-08T06:02:17.232Z,87.62
2023-03-08T06:04:50.258Z,88.04
2023-03-08T06:07:20.859Z,89.02
2023-03-08T06:09:53.478Z,89.18
2023-03-08T06:12:20.818Z,88.12
2023-03-08T06:14:52.599Z,88.65
2023-03-08T06:17:22.805Z,88.43
2023-03-08T06:19:52.195Z,87.28
2023-03-08T06:22:20.088Z,85.93
2023-03-08T06:24:49.860Z,84.09
2023-03-08T06:27:22.855Z,84.59
2023-03-08T06:29:52.719Z,84.94
2023-03-08T06:32:21.791Z,85.53
2023-03-08T06:34:49.405Z,83.96
2023-03-08T06:37:17.273Z,83.86
2023-03-08T06:39:44.911Z,84.53
2023-03-08T06:42:12.574Z,85.11
2023-03-08T06:44:40.311Z,85.89
2023-03-08T06:47:07.695Z,85.34
2023-03-08T06:49:35.150Z,82.24
2023-03-08T06:52:02.531Z,80.32
2023-03-08T06:54:30.122Z,76.50
2023-03-08T06:56:58.570Z,72.13
2023-03-08T06:59:25.877Z,72.66
2023-03-08T07:01:53.240Z,74.88
2023-03-08T07:04:20.993Z,75.87
2023-03-08T07:06:48.419Z,76.99
2023-03-08T07:09:15.730Z,79.18
2023-03-08T07:11:43.438Z,79.92
2023-03-08T07:14:10.741Z,79.39
2023-03-08T07:16:38.100Z,81.43
2023-03-08T07:19:05.426Z,79.86
2023-03-08T07:21:32.801Z,76.86
2023-03-08T07:24:00.172Z,75.11
2023-03-08T07:26:27.492Z,73.85
2023-03-08T07:28:55.864Z,74.09
2023-03-08T07:31:23.243Z,72.15
2023-03-08T07:33:50.528Z,70.70
2023-03-08T07:36:17.915Z,65.83
2023-03-08T07:38:46.822Z,63.30
2023-03-08T07:41:14.152Z,62.23
2023-03-08T07:43:41.545Z,60.45
2023-03-08T07:46:18.291Z,56.95
2023-03-08T07:48:45.625Z,55.78
2023-03-08T07:51:13.297Z,55.99
2023-03-08T07:53:40.659Z,51.98
2023-03-08T07:56:08.324Z,51.01
2023-03-08T07:58:35.655Z,50.00
2023-03-08T08:01:09.349Z,47.79
2023-03-08T08:03:37.848Z,48.86
2023-03-08T08:06:06.859Z,46.42
2023-03-08T08:08:34.746Z,45.39
2023-03-08T08:11:10.429Z,45.24
2023-03-08T08:13:37.692Z,46.11
2023-03-08T08:16:07.172Z,42.36
2023-03-08T08:18:35.685Z,39.51
2023-03-08T08:21:08.628Z,40.54
2023-03-08T08:23:36.783Z,40.68
2023-03-08T08:26:08.746Z,41.39
2023-03-08T08:28:36.706Z,41.02
2023-03-08T08:31:10.349Z,40.28
2023-03-08T08:33:38.051Z,39.52
2023-03-08T08:36:08.451Z,38.22
2023-03-08T08:38:35.816Z,37.77
2023-03-08T08:41:05.574Z,37.88
2023-03-08T08:43:35.378Z,38.61
2023-03-08T08:46:06.414Z,39.07
2023-03-08T08:48:34.217Z,37.43
2023-03-08T08:51:01.761Z,36.73
2023-03-08T08:53:29.062Z,36.85
2023-03-08T08:55:57.719Z,37.05
2023-03-08T08:58:25.744Z,35.55
2023-03-08T09:00:53.160Z,36.41
2023-03-08T09:03:20.571Z,36.21
2023-03-08T09:05:47.887Z,34.64
2023-03-08T09:08:15.610Z,36.37
2023-03-08T09:10:42.955Z,37.22
2023-03-08T09:13:10.965Z,37.35
2023-03-08T09:15:38.273Z,36.90
2023-03-08T09:18:05.857Z,38.56
2023-03-08T09:20:34.306Z,40.13
2023-03-08T09:23:01.662Z,39.15
2023-03-08T09:25:29.020Z,38.91
2023-03-08T09:27:56.307Z,38.38
2023-03-08T09:30:23.690Z,38.32
2023-03-08T09:32:51.149Z,40.03
2023-03-08T09:35:18.559Z,37.89
2023-03-08T09:37:45.974Z,37.69
2023-03-08T09:40:23.700Z,41.71
2023-03-08T09:42:51.286Z,40.68
2023-03-08T09:45:25.216Z,42.57
2023-03-08T09:48:10.987Z,42.74
2023-03-08T09:50:49.256Z,45.65
2023-03-08T09:53:24.606Z,47.12
2023-03-08T09:55:57.276Z,47.81
2023-03-08T09:59:08.255Z,50.58
2023-03-08T10:01:55.570Z,52.90
2023-03-08T10:04:32.516Z,52.81
2023-03-08T10:07:06.900Z,55.08
2023-03-08T10:09:41.638Z,57.77
2023-03-08T10:12:26.678Z,56.60
2023-03-08T10:15:00.697Z,56.74
2023-03-08T10:17:44.431Z,53.64
2023-03-08T10:20:28.240Z,52.53
2023-03-08T10:23:12.491Z,51.98
2023-03-08T10:25:40.294Z,52.21
2023-03-08T10:28:26.488Z,53.79
2023-03-08T10:31:00.958Z,53.66
2023-03-08T10:33:36.314Z,54.26
2023-03-08T10:36:09.614Z,53.81
2023-03-08T10:38:37.510Z,55.93
2023-03-08T10:41:10.534Z,52.10
2023-03-08T10:43:46.878Z,51.71
2023-03-08T10:46:24.197Z,48.61
2023-03-08T10:48:52.100Z,47.12
2023-03-08T10:51:27.635Z,44.71
2023-03-08T10:54:00.228Z,43.69
2023-03-08T10:56:32.509Z,43.93
2023-03-08T10:59:01.322Z,43.67
2023-03-08T11:01:31.318Z,42.07
2023-03-08T11:04:05.989Z,42.18
2023-03-08T11:06:37.249Z,42.09
2023-03-08T11:09:25.875Z,41.46
2023-03-08T11:11:54.435Z,42.42
2023-03-08T11:14:21.953Z,41.79
2023-03-08T11:17:04.798Z,42.31
2023-03-08T11:19:47.206Z,42.03
2023-03-08T11:22:30.983Z,42.14
2023-03-08T11:25:10.489Z,41.94
2023-03-08T11:27:57.732Z,42.45
2023-03-08T11:30:37.377Z,41.60
2023-03-08T11:33:07.556Z,41.94
2023-03-08T11:35:41.535Z,43.38
2023-03-08T11:38:31.615Z,42.87
2023-03-08T11:41:16.291Z,43.72
2023-03-08T11:44:02.274Z,41.46
2023-03-08T11:47:00.534Z,42.21
2023-03-08T11:49:46.674Z,42.61
2023-03-08T11:52:32.721Z,44.25
2023-03-08T11:55:37.000Z,43.70
2023-03-08T11:58:20.939Z,43.69
2023-03-08T12:00:51.905Z,42.59
2023-03-08T12:03:26.598Z,42.70
2023-03-08T12:05:59.161Z,42.68
2023-03-08T12:08:35.888Z,42.14
2023-03-08T12:11:09.232Z,42.75
2023-03-08T12:13:44.686Z,42.27
2023-03-08T12:16:41.041Z,42.05
2023-03-08T12:19:44.348Z,40.13
2023-03-08T12:22:17.843Z,40.58
2023-03-08T12:25:05.084Z,41.20
2023-03-08T12:27:40.383Z,43.09
2023-03-08T12:30:10.429Z,45.68
2023-03-08T12:32:39.674Z,46.07
2023-03-08T12:35:29.291Z,45.81
2023-03-08T12:38:26.887Z,44.94
2023-03-08T12:40:55.744Z,46.54
2023-03-08T12:43:23.037Z,48.07
2023-03-08T12:45:59.567Z,47.51
2023-03-08T12:48:35.498Z,47.77
2023-03-08T12:51:21.981Z,44.68
2023-03-08T12:53:53.197Z,43.98
2023-03-08T12:56:34.447Z,43.79
2023-03-08T12:59:22.929Z,44.04
2023-03-08T13:01:59.125Z,44.13
2023-03-08T13:04:41.510Z,44.27
2023-03-08T13:07:30.057Z,43.34
2023-03-08T13:10:35.858Z,43.47
2023-03-08T13:13:37.022Z,42.58
2023-03-08T13:16:15.797Z,43.48
2023-03-08T13:18:45.988Z,41.81
2023-03-08T13:21:28.743Z,43.03
2023-03-08T13:24:09.378Z,43.94
2023-03-08T13:26:50.379Z,43.17
2023-03-08T13:29:20.350Z,43.18
2023-03-08T13:31:48.644Z,44.23
2023-03-08T13:34:33.202Z,45.30
2023-03-08T13:37:01.660Z,45.53
2023-03-08T13:39:32.656Z,44.98
2023-03-08T13:42:08.267Z,46.12
2023-03-08T13:44:35.562Z,45.71
2023-03-08T13:47:20.681Z,47.08
2023-03-08T13:49:51.804Z,44.68
2023-03-08T13:52:24.000Z,44.01
2023-03-08T13:54:58.972Z,45.03
2023-03-08T13:57:31.520Z,46.40
2023-03-08T14:00:03.875Z,46.70
2023-03-08T14:02:32.293Z,46.56
2023-03-08T14:04:59.870Z,48.05
2023-03-08T14:07:30.753Z,48.64
2023-03-08T14:09:58.667Z,49.13
2023-03-08T14:12:30.712Z,47.32
2023-03-08T14:15:00.179Z,47.31
2023-03-08T14:17:30.651Z,48.39
2023-03-08T14:20:01.345Z,48.55
2023-03-08T14:22:39.227Z,49.36
2023-03-08T14:25:21.641Z,48.69
2023-03-08T14:27:49.973Z,48.65
2023-03-08T14:30:25.063Z,48.88
2023-03-08T14:33:00.265Z,49.15
2023-03-08T14:35:31.364Z,49.86
2023-03-08T14:37:58.965Z,50.45
2023-03-08T14:40:38.503Z,52.18
2023-03-08T14:43:15.497Z,52.45
2023-03-08T14:46:10.695Z,52.67
2023-03-08T14:48:38.537Z,52.47
2023-03-08T14:51:25.372Z,52.78
2023-03-08T14:54:05.737Z,52.60
2023-03-08T14:56:33.564Z,53.16
2023-03-08T14:59:05.314Z,53.36
2023-03-08T15:01:35.612Z,54.08
2023-03-08T15:04:04.970Z,53.35
2023-03-08T15:06:34.850Z,53.85
2023-03-08T15:09:03.967Z,54.25
2023-03-08T15:11:31.992Z,54.91
2023-03-08T15:13:59.830Z,55.71
2023-03-08T15:16:28.390Z,55.57
2023-03-08T15:18:55.920Z,56.48
2023-03-08T15:21:29.417Z,56.51
2023-03-08T15:23:57.847Z,56.27
2023-03-08T15:26:31.771Z,56.09
2023-03-08T15:29:04.217Z,55.79
2023-03-08T15:31:31.906Z,56.88
2023-03-08T15:33:59.384Z,56.23
2023-03-08T15:36:45.122Z,56.52
2023-03-08T15:39:13.201Z,57.21
2023-03-08T15:41:40.679Z,57.31
2023-03-08T15:44:09.515Z,57.16
2023-03-08T15:46:36.856Z,57.45
2023-03-08T15:49:04.990Z,57.93
2023-03-08T15:51:36.612Z,57.22
2023-03-08T15:54:05.899Z,57.60
2023-03-08T15:56:33.669Z,57.52
2023-03-08T15:59:01.038Z,57.20
2023-03-08T16:01:28.793Z,58.06
2023-03-08T16:03:56.841Z,58.22
2023-03-08T16:06:28.152Z,57.27
2023-03-08T16:08:56.578Z,57.99
2023-03-08T16:11:24.031Z,58.40
2023-03-08T16:13:54.046Z,58.07
2023-03-08T16:16:21.689Z,57.44
2023-03-08T16:18:49.205Z,58.23
2023-03-08T16:21:17.018Z,58.76
2023-03-08T16:23:44.361Z,59.55
2023-03-08T16:26:16.812Z,59.09
2023-03-08T16:28:47.065Z,59.48
2023-03-08T16:31:16.358Z,59.09
2023-03-08T16:33:43.869Z,59.98
2023-03-08T16:36:12.177Z,60.29
2023-03-08T16:38:40.543Z,60.82
2023-03-08T16:41:15.107Z,61.77
2023-03-08T16:43:47.961Z,60.73
2023-03-08T16:46:18.235Z,61.60
2023-03-08T16:48:49.148Z,62.45
2023-03-08T16:51:21.291Z,62.41
2023-03-08T16:53:49.315Z,62.66
2023-03-08T16:56:21.837Z,63.35
2023-03-08T16:58:49.614Z,62.66
2023-03-08T17:01:18.168Z,62.99
2023-03-08T17:03:45.832Z,62.63
2023-03-08T17:06:16.648Z,63.25
2023-03-08T17:08:43.972Z,64.28
2023-03-08T17:11:19.189Z,64.39
2023-03-08T17:13:51.641Z,64.85
2023-03-08T17:16:21.379Z,64.49
2023-03-08T17:18:49.888Z,64.97
2023-03-08T17:21:17.906Z,64.76
2023-03-08T17:23:45.760Z,64.61
2023-03-08T17:26:14.440Z,64.80
2023-03-08T17:28:42.031Z,64.36
2023-03-08T17:31:11.250Z,64.74
2023-03-08T17:33:39.203Z,64.01
2023-03-08T17:36:08.361Z,64.34
2023-03-08T17:38:36.080Z,64.82
2023-03-08T17:41:05.657Z,64.21
2023-03-08T17:43:33.027Z,63.68
2023-03-08T17:46:07.072Z,63.68
2023-03-08T17:48:35.341Z,64.34
2023-03-08T17:51:08.554Z,64.41
2023-03-08T17:53:37.517Z,63.95
2023-03-08T17:56:08.808Z,64.73
2023-03-08T17:58:38.778Z,64.76
2023-03-08T18:01:11.890Z,62.74
2023-03-08T18:03:42.183Z,62.87
2023-03-08T18:06:25.989Z,62.69
2023-03-08T18:08:53.621Z,62.84
2023-03-08T18:11:21.092Z,63.17
2023-03-08T18:13:48.910Z,64.36
2023-03-08T18:16:16.211Z,64.66
2023-03-08T18:18:43.565Z,64.25
2023-03-08T18:21:14.065Z,64.60
2023-03-08T18:23:43.250Z,64.94
2023-03-08T18:26:13.280Z,64.84
2023-03-08T18:28:41.194Z,64.47
2023-03-08T18:31:10.846Z,65.13
2023-03-08T18:33:38.244Z,64.52
2023-03-08T18:36:05.826Z,65.44
2023-03-08T18:38:33.331Z,65.08
2023-03-08T18:41:00.925Z,65.33
2023-03-08T18:43:28.314Z,64.91
2023-03-08T18:45:56.672Z,65.50
2023-03-08T18:48:24.442Z,66.18
2023-03-08T18:50:51.810Z,65.57
2023-03-08T18:53:19.051Z,66.30
2023-03-08T18:55:57.216Z,66.13
2023-03-08T18:58:26.005Z,66.24
2023-03-08T19:00:57.067Z,67.41
2023-03-08T19:03:25.417Z,67.70
2023-03-08T19:05:52.862Z,67.87
2023-03-08T19:08:20.473Z,67.58
2023-03-08T19:10:51.058Z,68.40
2023-03-08T19:13:18.367Z,68.59
2023-03-08T19:15:45.657Z,68.55
2023-03-08T19:18:12.956Z,68.74
2023-03-08T19:20:42.105Z,68.70
2023-03-08T19:23:10.481Z,68.29
2023-03-08T19:25:57.341Z,67.83
2023-03-08T19:28:24.643Z,69.16
2023-03-08T19:30:55.024Z,69.63
2023-03-08T19:33:31.083Z,68.74
2023-03-08T19:35:59.505Z,69.22
2023-03-08T19:38:26.899Z,69.37
2023-03-08T19:40:55.111Z,68.66
2023-03-08T19:43:22.369Z,69.33
2023-03-08T19:45:50.007Z,69.49
2023-03-08T19:48:17.448Z,69.68
2023-03-08T19:50:46.335Z,70.21
2023-03-08T19:53:13.702Z,69.66
2023-03-08T19:55:55.578Z,70.42
2023-03-08T19:58:23.578Z,69.82
2023-03-08T20:00:50.955Z,70.76
2023-03-08T20:03:19.018Z,70.13
2023-03-08T20:05:47.650Z,71.30
2023-03-08T20:08:15.337Z,71.57
2023-03-08T20:10:42.737Z,71.68
2023-03-08T20:13:10.098Z,71.76
2023-03-08T20:15:37.462Z,71.65
2023-03-08T20:18:06.576Z,71.51
2023-03-08T20:20:33.916Z,71.98
2023-03-08T20:23:01.300Z,72.17
2023-03-08T20:25:29.053Z,71.91
2023-03-08T20:27:56.814Z,71.92
2023-03-08T20:30:25.264Z,72.14
2023-03-08T20:32:53.266Z,71.79
2023-03-08T20:35:23.468Z,72.45
2023-03-08T20:37:51.180Z,71.74
2023-03-08T20:40:20.830Z,72.17
2023-03-08T20:42:48.376Z,71.98
2023-03-08T20:45:16.526Z,71.84
2023-03-08T20:47:43.879Z,71.73
2023-03-08T20:50:11.667Z,72.37
2023-03-08T20:52:38.938Z,72.11
2023-03-08T20:55:08.309Z,72.25
2023-03-08T20:57:35.594Z,71.51
2023-03-08T21:00:05.024Z,71.80
2023-03-08T21:02:32.487Z,71.83
2023-03-08T21:05:00.936Z,72.73
2023-03-08T21:07:28.419Z,73.24
2023-03-08T21:09:55.959Z,72.92
2023-03-08T21:12:23.312Z,72.00
2023-03-08T21:14:51.936Z,71.84
2023-03-08T21:17:26.027Z,72.15
2023-03-08T21:19:54.361Z,72.00
2023-03-08T21:22:21.913Z,71.77
2023-03-08T21:24:49.337Z,71.85
2023-03-08T21:27:16.699Z,71.82
2023-03-08T21:29:44.159Z,72.74
2023-03-08T21:32:13.176Z,72.47
2023-03-08T21:34:40.561Z,72.63
2023-03-08T21:37:07.963Z,72.43
2023-03-08T21:39:35.261Z,72.95
2023-03-08T21:42:02.549Z,73.33
2023-03-08T21:44:31.986Z,73.20
2023-03-08T21:46:59.481Z,73.85
2023-03-08T21:49:28.971Z,74.25
2023-03-08T21:51:58.670Z,74.30
2023-03-08T21:54:27.381Z,73.47
2023-03-08T21:56:54.956Z,73.05
2023-03-08T21:59:26.875Z,73.27
2023-03-08T22:01:57.266Z,73.33
2023-03-08T22:04:28.442Z,73.15
2023-03-08T22:06:56.280Z,73.16
2023-03-08T22:09:26.742Z,73.16
2023-03-08T22:11:54.443Z,72.79
2023-03-08T22:14:21.751Z,72.80
2023-03-08T22:16:49.103Z,72.03
2023-03-08T22:19:18.038Z,72.47
2023-03-08T22:21:45.403Z,72.93
2023-03-08T22:24:13.001Z,72.30
2023-03-08T22:26:40.304Z,72.50
2023-03-08T22:29:07.599Z,72.95
2023-03-08T22:31:34.966Z,74.11
2023-03-08T22:34:02.385Z,74.68
2023-03-08T22:36:29.779Z,74.13
2023-03-08T22:38:57.131Z,74.32
2023-03-08T22:41:26.670Z,74.50
2023-03-08T22:43:54.444Z,75.15
2023-03-08T22:46:24.976Z,74.79
2023-03-08T22:48:53.089Z,76.29
2023-03-08T22:51:24.060Z,76.41
2023-03-08T22:53:51.427Z,76.56
2023-03-08T22:56:24.590Z,76.39
2023-03-08T22:58:52.450Z,76.44
2023-03-08T23:01:21.946Z,75.88
2023-03-08T23:03:50.393Z,75.20
2023-03-08T23:06:18.573Z,76.57
2023-03-08T23:08:47.253Z,75.84
2023-03-08T23:11:15.195Z,76.23
2023-03-08T23:13:43.049Z,75.90
2023-03-08T23:16:15.699Z,74.61
2023-03-08T23:18:45.490Z,74.45
2023-03-08T23:21:14.757Z,74.12
2023-03-08T23:23:42.532Z,74.69
2023-03-08T23:26:17.532Z,74.31
2023-03-08T23:28:44.850Z,74.72
2023-03-08T23:31:15.899Z,74.39
2023-03-08T23:33:44.706Z,74.66
2023-03-08T23:36:14.127Z,75.12
2023-03-08T23:38:42.182Z,75.11
2023-03-08T23:41:11.328Z,75.36
2023-03-08T23:43:40.036Z,75.22
2023-03-08T23:46:13.734Z,75.94
2023-03-08T23:48:45.212Z,75.65
2023-03-08T23:51:15.705Z,75.61
2023-03-08T23:53:43.069Z,76.15
2023-03-08T23:56:30.873Z,75.48
2023-03-08T23:59:01.297Z,74.34
